Time;durP1;ratioP1;P1;durP2;ratioP2;P2;SDS_P1;SDS_P2;PMS_P1;PMS_P2;Temp;Humidity;BMP_temperature;BMP_pressure;BME280_temperature;BME280_humidity;BME280_pressure;Samples;Min_cycle;Max_cycle;Signal;HPM_P1;HPM_P2
2023/12/01 00:00:26;;;;;;;23.38;9.38;;;1.20;99.90;;;0.75;100.00;99712.56;5254195;28;20051;-46
2023/12/01 00:02:59;;;;;;;21.05;8.77;;;1.20;99.90;;;0.73;100.00;99705.59;5254512;28;20044;-47
2023/12/01 00:05:32;;;;;;;21.75;8.65;;;1.10;99.90;;;0.72;100.00;99704.72;5244109;28;20064;-46
2023/12/01 00:08:04;;;;;;;22.55;9.55;;;1.20;99.90;;;0.67;100.00;99708.69;5258517;28;20044;-46
2023/12/01 00:10:37;;;;;;;23.92;10.02;;;1.10;99.90;;;0.62;100.00;99711.78;5238009;28;20036;-47
2023/12/01 00:13:09;;;;;;;23.70;9.82;;;1.10;99.90;;;0.60;100.00;99713.38;5248358;28;20043;-48
2023/12/01 00:15:44;;;;;;;20.08;8.43;;;1.00;99.90;;;0.55;100.00;99713.13;5244951;28;20047;-46
2023/12/01 00:18:16;;;;;;;24.73;9.65;;;1.00;99.90;;;0.52;100.00;99718.97;5257168;28;20052;-46
2023/12/01 00:20:48;;;;;;;23.80;10.60;;;1.00;99.90;;;0.47;100.00;99714.38;5257813;28;20044;-45
2023/12/01 00:23:21;;;;;;;25.20;9.82;;;0.90;99.90;;;0.43;100.00;99722.66;5244972;28;20032;-46
2023/12/01 00:25:54;;;;;;;28.85;11.45;;;0.90;99.90;;;0.39;100.00;99723.28;5246067;28;20032;-46
2023/12/01 00:28:26;;;;;;;23.40;9.48;;;0.80;99.90;;;0.34;100.00;99722.16;5244832;28;20052;-46
2023/12/01 00:31:00;;;;;;;29.20;11.70;;;0.80;99.90;;;0.28;100.00;99719.22;5253023;28;20055;-47
2023/12/01 00:33:32;;;;;;;24.67;9.02;;;0.80;99.90;;;0.24;100.00;99720.72;5254407;28;20119;-46
2023/12/01 00:36:06;;;;;;;18.80;8.43;;;0.70;99.90;;;0.20;100.00;99714.53;5242201;28;20036;-45
2023/12/01 00:38:38;;;;;;;20.83;8.68;;;0.70;99.90;;;0.16;100.00;99727.97;5242439;28;20414;-45
2023/12/01 00:41:11;;;;;;;20.60;8.75;;;0.60;99.90;;;0.15;100.00;99721.06;5240698;28;20051;-45
2023/12/01 00:43:43;;;;;;;22.65;9.00;;;0.60;99.90;;;0.11;100.00;99721.69;5229761;28;20040;-47
2023/12/01 00:46:17;;;;;;;23.33;8.45;;;0.60;99.90;;;0.07;100.00;99718.88;5242423;28;20040;-46
2023/12/01 00:48:49;;;;;;;22.75;8.93;;;0.60;99.90;;;0.04;100.00;99716.97;5239584;28;20059;-46
2023/12/01 00:51:22;;;;;;;17.63;7.68;;;0.50;99.90;;;0.01;100.00;99711.69;5242639;28;20395;-47
2023/12/01 00:53:54;;;;;;;23.60;9.30;;;0.50;99.90;;;0.01;100.00;99711.69;5243718;28;20048;-45
2023/12/01 00:56:26;;;;;;;20.92;8.77;;;0.50;99.90;;;0.04;100.00;99721.22;5237518;28;20056;-46
2023/12/01 00:58:59;;;;;;;24.45;9.40;;;0.40;99.90;;;0.08;100.00;99724.06;5254881;28;20530;-47
2023/12/01 01:01:33;;;;;;;20.60;8.15;;;0.50;99.90;;;0.14;100.00;99729.56;5235506;28;20040;-46
2023/12/01 01:04:05;;;;;;;28.90;10.88;;;0.60;99.90;;;0.17;100.00;99731.41;5253941;28;20043;-47
2023/12/01 01:06:38;;;;;;;23.70;9.07;;;0.60;99.90;;;0.21;100.00;99731.69;5244709;28;20139;-46
2023/12/01 01:09:10;;;;;;;23.05;9.43;;;0.70;99.90;;;0.21;100.00;99725.69;5251320;28;20047;-46
2023/12/01 01:11:43;;;;;;;26.85;10.75;;;0.70;99.90;;;0.21;100.00;99731.69;5245242;28;20122;-46
2023/12/01 01:14:15;;;;;;;27.67;9.80;;;0.70;99.90;;;0.22;100.00;99738.56;5259175;28;20691;-47
2023/12/01 01:16:49;;;;;;;25.13;10.07;;;0.70;99.90;;;0.28;100.00;99734.59;5244546;28;20047;-46
2023/12/01 01:19:21;;;;;;;24.75;8.85;;;0.70;99.90;;;0.34;100.00;99740.09;5243362;28;20041;-46
2023/12/01 01:21:54;;;;;;;26.50;9.80;;;0.80;99.90;;;0.34;100.00;99738.41;5253114;28;20037;-46
2023/12/01 01:24:26;;;;;;;26.70;10.15;;;0.80;99.90;;;0.36;100.00;99735.94;5242923;28;20033;-47
2023/12/01 01:26:59;;;;;;;25.23;9.48;;;0.80;99.90;;;0.38;100.00;99744.59;5258723;28;20774;-46
2023/12/01 01:29:31;;;;;;;25.83;9.35;;;0.90;99.90;;;0.42;100.00;99741.41;5253938;28;20049;-47
2023/12/01 01:32:06;;;;;;;26.75;9.20;;;0.90;99.90;;;0.44;100.00;99744.94;5250384;28;20071;-46
2023/12/01 01:34:39;;;;;;;22.88;9.30;;;0.90;99.90;;;0.44;100.00;99745.81;5254308;28;20319;-46
2023/12/01 01:37:11;;;;;;;22.20;8.93;;;1.00;99.90;;;0.47;100.00;99750.25;5261067;28;20044;-47
2023/12/01 01:39:44;;;;;;;26.17;9.55;;;1.00;99.90;;;0.50;100.00;99750.44;5244067;28;20032;-47
2023/12/01 01:42:16;;;;;;;21.50;8.30;;;1.00;99.90;;;0.53;100.00;99753.19;5237339;28;20048;-46
2023/12/01 01:44:48;;;;;;;21.13;9.43;;;1.00;99.90;;;0.56;100.00;99761.03;5244783;28;20048;-46
2023/12/01 01:47:22;;;;;;;19.85;7.70;;;1.00;99.90;;;0.59;100.00;99748.41;5242146;28;20040;-47
2023/12/01 01:49:55;;;;;;;21.85;8.15;;;1.00;99.90;;;0.65;100.00;99747.84;5239973;28;20093;-46
2023/12/01 01:52:28;;;;;;;17.38;7.45;;;1.10;99.90;;;0.66;100.00;99758.22;5242416;28;20465;-46
2023/12/01 01:55:01;;;;;;;18.38;7.88;;;1.10;99.90;;;0.70;100.00;99765.28;5247667;28;20033;-46
2023/12/01 01:57:38;;;;;;;18.30;7.13;;;1.10;99.90;;;0.73;100.00;99760.34;5250397;28;20071;-46
2023/12/01 02:00:16;;;;;;;19.48;8.43;;;1.20;99.90;;;0.76;100.00;99759.63;5253522;28;20048;-45
2023/12/01 02:02:50;;;;;;;19.30;7.78;;;1.20;99.90;;;0.75;100.00;99763.88;5245583;28;20642;-47
2023/12/01 02:05:22;;;;;;;15.90;6.70;;;1.20;99.90;;;0.77;100.00;99767.38;5236429;28;20139;-47
2023/12/01 02:07:54;;;;;;;19.33;6.90;;;1.20;99.90;;;0.79;100.00;99767.50;5237985;28;20040;-47
2023/12/01 02:10:27;;;;;;;17.83;8.00;;;1.20;99.90;;;0.70;100.00;99764.41;5241683;28;20044;-47
2023/12/01 02:13:00;;;;;;;18.48;7.38;;;1.20;99.90;;;0.71;100.00;99761.03;5256954;28;20044;-47
2023/12/01 02:15:32;;;;;;;15.63;6.60;;;1.20;99.90;;;0.72;100.00;99763.72;5241552;28;20040;-47
2023/12/01 02:18:24;;;;;;;19.17;6.90;;;1.20;99.90;;;0.70;100.00;99760.16;5242161;28;20079;-47
2023/12/01 02:20:58;;;;;;;17.67;6.90;;;1.20;99.90;;;0.74;100.00;99763.78;5239759;28;20059;-47
2023/12/01 02:23:32;;;;;;;20.73;7.47;;;1.20;99.90;;;0.67;100.00;99762.56;5240019;28;20467;-46
2023/12/01 02:26:09;;;;;;;16.92;6.68;;;1.20;99.90;;;0.60;100.00;99762.13;5258771;28;20048;-47
2023/12/01 02:28:42;;;;;;;18.20;6.22;;;1.10;99.90;;;0.60;100.00;99768.13;5240590;28;20130;-47
2023/12/01 02:31:14;;;;;;;16.58;6.47;;;1.10;99.90;;;0.61;100.00;99771.56;5252431;28;20059;-46
2023/12/01 02:33:46;;;;;;;17.27;6.90;;;1.10;99.90;;;0.60;100.00;99768.13;5241885;28;20051;-47
2023/12/01 02:36:19;;;;;;;17.20;6.45;;;1.10;99.90;;;0.64;100.00;99764.91;5261262;28;20056;-47
2023/12/01 02:38:53;;;;;;;15.32;6.75;;;1.10;99.90;;;0.67;100.00;99772.81;5244114;28;20045;-46
2023/12/01 02:41:25;;;;;;;16.70;6.40;;;1.20;99.90;;;0.68;100.00;99772.00;5245434;28;20041;-47
2023/12/01 02:43:58;;;;;;;20.00;7.45;;;1.20;99.90;;;0.68;100.00;99772.00;5242014;28;20044;-47
2023/12/01 02:46:30;;;;;;;15.85;6.78;;;1.10;99.90;;;0.70;100.00;99780.66;5239032;28;20048;-47
2023/12/01 02:49:02;;;;;;;18.05;6.53;;;1.20;99.90;;;0.73;100.00;99775.72;5256460;28;20434;-47
2023/12/01 02:51:35;;;;;;;18.58;6.18;;;1.20;99.90;;;0.75;100.00;99784.38;5236306;28;20051;-47
2023/12/01 02:54:09;;;;;;;18.65;6.93;;;1.20;99.90;;;0.71;100.00;99785.00;5238070;28;20043;-47
2023/12/01 02:56:41;;;;;;;16.92;6.40;;;1.20;99.90;;;0.67;100.00;99788.19;5242709;28;20056;-47
2023/12/01 02:59:14;;;;;;;15.25;6.38;;;1.20;99.90;;;0.66;100.00;99790.69;5251465;28;20063;-47
2023/12/01 03:01:46;;;;;;;17.20;6.60;;;1.20;99.90;;;0.70;100.00;99790.03;5238914;28;20044;-47
2023/12/01 03:04:18;;;;;;;13.10;5.70;;;1.20;99.90;;;0.73;100.00;99795.38;5252542;28;20515;-48
2023/12/01 03:06:51;;;;;;;15.13;5.80;;;1.20;99.90;;;0.73;100.00;99780.84;5235895;28;20446;-47
2023/12/01 03:09:25;;;;;;;12.85;5.40;;;1.20;99.90;;;0.77;100.00;99777.66;5240633;28;20041;-47
2023/12/01 03:11:57;;;;;;;13.88;5.70;;;1.20;99.90;;;0.82;100.00;99780.50;5240043;28;20415;-47
2023/12/01 03:14:30;;;;;;;13.32;4.93;;;1.30;99.90;;;0.88;100.00;99779.97;5236500;28;20488;-47
2023/12/01 03:17:02;;;;;;;10.77;4.80;;;1.30;99.90;;;0.91;100.00;99781.00;5242684;28;20043;-47
2023/12/01 03:19:34;;;;;;;10.48;4.38;;;1.30;99.90;;;0.94;100.00;99778.63;5256988;28;20052;-47
2023/12/01 03:22:07;;;;;;;13.77;5.90;;;1.40;99.90;;;0.97;100.00;99780.47;5237931;28;20050;-47
2023/12/01 03:24:43;;;;;;;16.38;6.15;;;1.40;99.90;;;0.98;100.00;99779.69;5255978;28;20463;-47
2023/12/01 03:27:15;;;;;;;11.02;5.05;;;1.40;99.90;;;1.01;100.00;99777.28;5240781;28;20138;-47
2023/12/01 03:29:48;;;;;;;12.23;5.22;;;1.40;99.90;;;1.01;100.00;99780.72;5241056;28;20381;-47
2023/12/01 03:32:20;;;;;;;13.98;5.35;;;1.40;99.90;;;1.03;100.00;99784.25;5255572;28;20131;-47
2023/12/01 03:34:52;;;;;;;14.80;4.90;;;1.40;99.90;;;1.06;100.00;99792.16;5257944;28;20048;-47
2023/12/01 03:37:25;;;;;;;13.07;5.65;;;1.50;99.90;;;1.06;100.00;99789.59;5256861;28;20047;-46
2023/12/01 03:39:58;;;;;;;13.00;5.20;;;1.50;99.90;;;1.08;100.00;99797.38;5252883;28;20051;-48
2023/12/01 03:42:31;;;;;;;18.75;6.70;;;1.50;99.90;;;1.09;100.00;99776.03;5243114;28;20032;-46
2023/12/01 03:45:06;;;;;;;14.27;5.93;;;1.50;99.90;;;1.06;100.00;99781.00;5257103;28;20041;-47
2023/12/01 03:47:40;;;;;;;14.75;5.95;;;1.50;99.90;;;1.08;100.00;99780.28;5241632;28;20164;-47
2023/12/01 03:50:13;;;;;;;19.70;8.45;;;1.50;99.90;;;1.09;100.00;99784.59;5238815;28;20048;-47
2023/12/01 03:52:47;;;;;;;17.88;7.18;;;1.50;99.90;;;1.10;100.00;99793.19;5249993;28;20080;-47
2023/12/01 03:55:21;;;;;;;22.65;8.02;;;1.50;99.90;;;1.07;100.00;99793.03;5253202;28;20044;-47
2023/12/01 03:57:53;;;;;;;18.83;6.97;;;1.50;99.90;;;1.05;100.00;99792.94;5244977;28;20054;-47
2023/12/01 04:00:32;;;;;;;20.45;7.88;;;1.50;99.90;;;1.03;100.00;99794.53;5238369;28;20047;-47
2023/12/01 04:03:04;;;;;;;22.38;8.07;;;1.50;99.90;;;1.06;100.00;99796.41;5248643;28;20044;-48
2023/12/01 04:05:37;;;;;;;21.98;8.13;;;1.50;99.90;;;1.06;100.00;99796.41;5236903;28;20055;-48
2023/12/01 04:08:10;;;;;;;23.23;8.63;;;1.50;99.90;;;1.06;100.00;99797.28;5241227;28;20133;-47
2023/12/01 04:10:43;;;;;;;21.60;8.63;;;1.50;99.90;;;1.07;100.00;99811.00;5236230;28;20059;-47
2023/12/01 04:13:16;;;;;;;19.70;8.20;;;1.50;99.90;;;1.07;100.00;99813.56;5242124;28;20143;-47
2023/12/01 04:15:48;;;;;;;20.25;7.43;;;1.50;99.90;;;1.07;100.00;99805.88;5238780;28;20128;-47
2023/12/01 04:18:21;;;;;;;19.92;8.43;;;1.50;99.90;;;1.08;100.00;99808.50;5247423;28;20136;-48
2023/12/01 04:20:54;;;;;;;18.02;7.20;;;1.40;99.90;;;1.07;100.00;99813.56;5243427;28;20055;-47
2023/12/01 04:23:27;;;;;;;23.88;8.73;;;1.50;99.90;;;1.08;100.00;99820.47;5244828;28;20074;-47
2023/12/01 04:26:01;;;;;;;20.98;7.78;;;1.50;99.90;;;1.09;100.00;99827.34;5255588;28;20041;-46
2023/12/01 04:28:33;;;;;;;20.27;7.50;;;1.50;99.90;;;1.10;100.00;99818.84;5244376;28;20643;-47
2023/12/01 04:31:06;;;;;;;19.55;7.18;;;1.50;99.90;;;1.09;100.00;99822.22;5244328;28;20040;-46
2023/12/01 04:33:39;;;;;;;19.02;7.50;;;1.50;99.90;;;1.08;100.00;99823.91;5241673;28;20052;-48
2023/12/01 04:36:11;;;;;;;19.27;6.75;;;1.50;99.90;;;1.10;100.00;99834.25;5261824;28;20054;-47
2023/12/01 04:38:44;;;;;;;17.08;6.57;;;1.50;99.90;;;1.10;100.00;99826.56;5239402;28;20395;-47
2023/12/01 04:41:17;;;;;;;20.67;7.97;;;1.50;99.90;;;1.09;100.00;99829.94;5241154;28;20033;-47
2023/12/01 04:43:50;;;;;;;20.27;7.50;;;1.50;99.90;;;1.07;100.00;99821.25;5228909;28;20049;-49
2023/12/01 04:46:22;;;;;;;16.92;7.22;;;1.50;99.90;;;1.05;100.00;99828.00;5252800;28;20414;-48
2023/12/01 04:48:55;;;;;;;15.55;6.93;;;1.50;99.90;;;1.04;100.00;99823.63;5246119;28;20047;-47
2023/12/01 04:51:27;;;;;;;17.65;5.80;;;1.50;99.90;;;1.03;100.00;99832.16;5248360;28;20055;-48
2023/12/01 04:53:59;;;;;;;19.92;7.53;;;1.40;99.90;;;1.05;100.00;99833.13;5262767;28;20422;-47
2023/12/01 04:56:33;;;;;;;16.38;6.13;;;1.50;99.90;;;1.08;100.00;99835.88;5244969;28;20112;-47
2023/12/01 04:59:06;;;;;;;14.30;6.47;;;1.50;99.90;;;1.10;100.00;99839.38;5244952;28;20041;-48
2023/12/01 05:01:40;;;;;;;15.93;6.68;;;1.50;99.90;;;1.12;100.00;99839.50;5243427;28;20052;-47
2023/12/01 05:04:13;;;;;;;18.23;7.13;;;1.50;99.90;;;1.11;100.00;99845.41;5242308;28;20040;-47
2023/12/01 05:06:46;;;;;;;21.77;8.45;;;1.50;99.90;;;1.09;100.00;99847.91;5240449;28;20499;-48
2023/12/01 05:09:21;;;;;;;19.13;7.85;;;1.50;99.90;;;1.07;100.00;99846.94;5245273;28;20052;-47
2023/12/01 05:11:55;;;;;;;20.75;7.72;;;1.50;99.90;;;1.07;100.00;99854.63;5242228;28;20072;-48
2023/12/01 05:14:27;;;;;;;17.60;7.03;;;1.50;99.90;;;1.07;100.00;99858.09;5254029;28;20055;-48
2023/12/01 05:16:59;;;;;;;17.70;7.32;;;1.50;99.90;;;1.06;100.00;99852.88;5243381;28;20561;-47
2023/12/01 05:19:31;;;;;;;19.00;7.32;;;1.50;99.90;;;1.04;100.00;99855.34;5242706;28;20516;-47
2023/12/01 05:22:04;;;;;;;22.15;8.30;;;1.40;99.90;;;1.07;100.00;99854.63;5242953;28;20051;-47
2023/12/01 05:24:37;;;;;;;16.30;7.20;;;1.50;99.90;;;1.08;100.00;99851.25;5248197;28;20800;-48
2023/12/01 05:27:11;;;;;;;20.13;7.60;;;1.50;99.90;;;1.08;100.00;99851.25;5245721;28;20506;-46
2023/12/01 05:29:44;;;;;;;18.13;7.22;;;1.50;99.90;;;1.07;100.00;99847.81;5240702;28;20051;-47
2023/12/01 05:32:18;;;;;;;17.65;7.07;;;1.50;99.90;;;1.10;100.00;99857.34;5242375;28;20056;-47
2023/12/01 05:34:50;;;;;;;16.90;6.82;;;1.50;99.90;;;1.11;100.00;99853.09;5242809;28;20128;-47
2023/12/01 05:37:23;;;;;;;19.08;7.50;;;1.50;99.90;;;1.09;100.00;99853.03;5252980;28;20054;-48
2023/12/01 05:39:55;;;;;;;16.17;6.13;;;1.50;99.90;;;1.07;100.00;99859.75;5245226;28;20036;-46
2023/12/01 05:42:29;;;;;;;13.82;5.88;;;1.50;99.90;;;1.07;100.00;99860.66;5244872;28;20587;-47
2023/12/01 05:45:01;;;;;;;16.52;6.63;;;1.40;99.90;;;1.09;100.00;99873.56;5252239;28;20040;-47
2023/12/01 05:47:34;;;;;;;15.70;6.00;;;1.50;99.90;;;1.09;100.00;99876.13;5259266;28;20047;-48
2023/12/01 05:50:08;;;;;;;13.10;5.75;;;1.50;99.90;;;1.09;100.00;99894.09;5262360;28;20074;-47
2023/12/01 05:52:42;;;;;;;14.27;5.00;;;1.50;99.90;;;1.11;100.00;99881.34;5244992;28;20040;-47
2023/12/01 05:55:16;;;;;;;15.55;6.57;;;1.50;99.90;;;1.13;100.00;99880.66;5261364;28;20067;-46
2023/12/01 05:57:51;;;;;;;12.25;5.25;;;1.50;99.90;;;1.15;100.00;99883.31;5244507;28;20052;-49
2023/12/01 06:00:29;;;;;;;13.57;5.65;;;1.50;99.90;;;1.15;100.00;99886.75;5255028;28;20050;-47
2023/12/01 06:03:06;;;;;;;17.38;7.35;;;1.50;99.90;;;1.14;100.00;99910.66;5253566;28;20075;-47
2023/12/01 06:05:39;;;;;;;16.33;6.30;;;1.50;99.90;;;1.16;100.00;99903.91;5242136;28;20041;-49
2023/12/01 06:08:11;;;;;;;14.95;6.22;;;1.60;99.90;;;1.17;100.00;99897.97;5260523;28;20052;-47
2023/12/01 06:10:43;;;;;;;16.85;6.75;;;1.60;99.90;;;1.18;100.00;99904.91;5244450;28;20071;-47
2023/12/01 06:13:17;;;;;;;14.90;6.00;;;1.60;99.90;;;1.17;100.00;99903.13;5257740;28;20048;-50
2023/12/01 06:15:50;;;;;;;18.80;6.95;;;1.60;99.90;;;1.12;100.00;99903.69;5240304;28;20113;-48
2023/12/01 06:18:22;;;;;;;15.73;6.63;;;1.60;99.90;;;1.11;100.00;99902.78;5237726;28;20052;-47
2023/12/01 06:20:55;;;;;;;16.98;6.18;;;1.60;99.90;;;1.13;100.00;99914.03;5244209;28;20047;-47
2023/12/01 06:23:27;;;;;;;14.98;5.95;;;1.60;99.90;;;1.12;100.00;99925.09;5240525;28;20056;-47
2023/12/01 06:25:59;;;;;;;15.55;5.60;;;1.60;99.90;;;1.12;100.00;99919.06;5241184;28;20041;-46
2023/12/01 06:28:33;;;;;;;12.90;5.93;;;1.50;99.90;;;1.13;100.00;99925.97;5238133;28;20522;-47
2023/12/01 06:31:06;;;;;;;15.13;5.90;;;1.60;99.90;;;1.12;100.00;99934.47;5243815;28;20043;-47
2023/12/01 06:33:38;;;;;;;13.85;5.85;;;1.60;99.90;;;1.13;100.00;99931.09;5242618;28;20048;-47
2023/12/01 06:36:11;;;;;;;15.95;7.40;;;1.60;99.90;;;1.12;100.00;99930.22;5241418;28;20533;-47
2023/12/01 06:38:44;;;;;;;15.30;6.25;;;1.60;99.90;;;1.14;100.00;99933.75;5238125;28;20391;-47
2023/12/01 06:41:16;;;;;;;14.68;6.28;;;1.60;99.90;;;1.15;100.00;99940.66;5240758;28;20044;-47
2023/12/01 06:43:50;;;;;;;13.93;6.07;;;1.60;99.90;;;1.13;100.00;99942.25;5240293;28;20048;-47
2023/12/01 06:46:22;;;;;;;13.27;5.63;;;1.60;99.90;;;1.12;100.00;99945.63;5243827;28;20053;-47
2023/12/01 06:48:54;;;;;;;16.02;6.35;;;1.60;99.90;;;1.01;100.00;99946.66;5241042;28;20559;-47
2023/12/01 06:51:27;;;;;;;14.10;5.60;;;1.50;99.90;;;0.99;100.00;99944.03;5241776;28;20515;-47
2023/12/01 06:54:00;;;;;;;15.68;6.20;;;1.50;99.90;;;1.02;100.00;99949.31;5243348;28;20421;-47
2023/12/01 06:56:32;;;;;;;14.35;5.55;;;1.50;99.90;;;0.96;100.00;99942.94;5246527;28;20088;-47
2023/12/01 06:59:06;;;;;;;14.45;5.95;;;1.50;99.90;;;0.98;100.00;99956.78;5257796;28;20040;-47
2023/12/01 07:01:39;;;;;;;13.45;5.10;;;1.40;99.90;;;1.00;100.00;99958.63;5238210;28;20052;-47
2023/12/01 07:04:13;;;;;;;14.73;5.68;;;1.50;99.90;;;0.99;100.00;99953.41;5244195;28;20445;-47
2023/12/01 07:06:47;;;;;;;14.80;5.28;;;1.50;99.90;;;0.98;100.00;99961.91;5239426;28;20044;-46
2023/12/01 07:09:19;;;;;;;15.20;6.07;;;1.40;99.90;;;0.95;100.00;99952.31;5242858;28;20144;-47
2023/12/01 07:11:52;;;;;;;12.80;5.07;;;1.40;99.90;;;0.95;100.00;99956.56;5243429;28;20055;-47
2023/12/01 07:14:25;;;;;;;12.00;5.05;;;1.40;99.90;;;0.94;100.00;99959.94;5255186;28;20059;-47
2023/12/01 07:16:58;;;;;;;11.63;4.57;;;1.40;99.90;;;0.97;100.00;99965.22;5241846;28;20044;-47
2023/12/01 07:19:30;;;;;;;12.60;5.07;;;1.40;99.90;;;1.01;100.00;99968.09;5242579;28;20048;-47
2023/12/01 07:22:02;;;;;;;14.98;5.60;;;1.50;99.90;;;0.98;100.00;99967.03;5239587;28;20056;-48
2023/12/01 07:24:35;;;;;;;14.50;5.55;;;1.50;99.90;;;0.98;100.00;99967.03;5241652;28;20056;-46
2023/12/01 07:27:09;;;;;;;16.48;6.32;;;1.50;99.90;;;0.91;100.00;99967.44;5259257;28;20048;-48
2023/12/01 07:29:43;;;;;;;14.27;5.35;;;1.40;99.90;;;0.89;100.00;99966.47;5243649;28;20048;-47
2023/12/01 07:32:15;;;;;;;14.82;5.43;;;1.40;99.90;;;0.85;100.00;99973.13;5256604;28;20181;-47
2023/12/01 07:34:48;;;;;;;13.48;4.75;;;1.40;99.90;;;0.85;100.00;99972.19;5243978;28;20530;-47
2023/12/01 07:37:20;;;;;;;10.95;4.82;;;1.40;99.90;;;0.82;100.00;99968.66;5256900;28;20121;-48
2023/12/01 07:39:53;;;;;;;15.48;5.10;;;1.30;99.90;;;0.70;100.00;99979.84;5241870;28;20056;-47
2023/12/01 07:42:25;;;;;;;11.60;5.25;;;1.30;99.90;;;0.65;100.00;99986.38;5247574;28;20071;-47
2023/12/01 07:44:59;;;;;;;14.27;5.05;;;1.30;99.90;;;0.54;100.00;99985.75;5243806;28;20052;-47
2023/12/01 07:47:31;;;;;;;11.38;4.43;;;1.20;99.90;;;0.48;100.00;99982.81;5238842;28;20050;-48
2023/12/01 07:50:05;;;;;;;10.55;4.80;;;1.10;99.90;;;0.53;100.00;99976.28;5241286;28;20041;-47
2023/12/01 07:52:37;;;;;;;11.55;4.78;;;1.10;99.90;;;0.60;100.00;99985.25;5239117;28;20414;-46
2023/12/01 07:55:10;;;;;;;10.77;4.63;;;1.10;99.90;;;0.60;100.00;99988.69;5262392;28;20048;-48
2023/12/01 07:57:42;;;;;;;12.82;5.35;;;1.20;99.90;;;0.61;100.00;99990.47;5242860;28;20796;-47
2023/12/01 08:00:17;;;;;;;11.50;4.72;;;1.20;99.90;;;0.68;100.00;99990.03;5243225;28;20533;-47
2023/12/01 08:02:52;;;;;;;13.15;5.13;;;1.20;99.90;;;0.75;100.00;99999.88;5236929;28;20052;-46
2023/12/01 08:05:26;;;;;;;13.27;5.03;;;1.20;99.90;;;0.80;100.00;99995.03;5237682;28;20101;-46
2023/12/01 08:07:58;;;;;;;9.07;3.95;;;1.30;99.90;;;0.74;100.00;100000.66;5240818;28;20072;-47
2023/12/01 08:10:31;;;;;;;10.23;4.38;;;1.30;99.90;;;0.71;100.00;100005.59;5230022;28;20044;-48
2023/12/01 08:13:03;;;;;;;10.15;3.95;;;1.30;99.90;;;0.73;100.00;100006.59;5243540;28;20036;-47
2023/12/01 08:15:37;;;;;;;11.38;4.25;;;1.30;99.90;;;0.72;100.00;100009.09;5243051;28;20889;-47
2023/12/01 08:18:09;;;;;;;10.40;3.67;;;1.30;99.90;;;0.73;100.00;100009.16;5232813;28;20049;-47
2023/12/01 08:20:42;;;;;;;9.77;3.85;;;1.30;99.90;;;0.71;100.00;99997.91;5252435;28;20055;-48
2023/12/01 08:23:14;;;;;;;9.73;3.80;;;1.30;99.90;;;0.72;100.00;100012.53;5258812;28;20056;-48
2023/12/01 08:25:47;;;;;;;7.43;3.10;;;1.30;99.90;;;0.77;100.00;100010.22;5258233;28;20160;-48
2023/12/01 08:28:19;;;;;;;8.82;3.63;;;1.30;99.90;;;0.94;100.00;100008.69;5257852;28;20044;-47
2023/12/01 08:30:54;;;;;;;10.20;4.05;;;1.40;99.90;;;1.04;100.00;100016.13;5263525;28;20530;-47
2023/12/01 08:33:26;;;;;;;9.45;4.05;;;1.50;99.90;;;1.06;100.00;100014.56;5251621;28;20044;-48
2023/12/01 08:35:59;;;;;;;11.68;4.30;;;1.50;99.90;;;1.09;100.00;100019.88;5255137;28;20062;-47
2023/12/01 08:38:31;;;;;;;9.80;4.80;;;1.60;99.90;;;1.05;100.00;100013.69;5262898;28;20040;-47
2023/12/01 08:41:03;;;;;;;9.32;4.30;;;1.60;99.90;;;1.04;100.00;100017.03;5260265;28;20044;-47
2023/12/01 08:43:36;;;;;;;10.77;3.97;;;1.60;99.90;;;1.08;100.00;100020.66;5264823;28;20537;-47
2023/12/01 08:46:10;;;;;;;9.25;3.75;;;1.60;99.90;;;1.10;100.00;100013.94;5282887;28;20704;-48
2023/12/01 08:48:43;;;;;;;8.35;3.50;;;1.60;99.90;;;1.13;100.00;100021.84;5261911;28;20109;-48
2023/12/01 08:51:15;;;;;;;9.43;4.03;;;1.60;99.90;;;1.19;100.00;100024.75;5262774;28;20056;-47
2023/12/01 08:53:47;;;;;;;10.65;4.00;;;1.60;99.90;;;1.25;100.00;100024.25;5261307;28;20056;-47
2023/12/01 08:56:20;;;;;;;9.00;3.88;;;1.70;99.90;;;1.29;100.00;100021.06;5269354;28;20059;-47
2023/12/01 08:58:52;;;;;;;9.02;4.53;;;1.70;99.90;;;1.33;100.00;100023.00;5260791;28;20048;-48
2023/12/01 09:01:26;;;;;;;10.05;4.03;;;1.70;99.90;;;1.36;100.00;100026.63;5252608;28;20044;-47
2023/12/01 09:03:58;;;;;;;8.77;3.75;;;1.70;99.90;;;1.41;100.00;100031.16;5259866;28;20047;-47
2023/12/01 09:06:30;;;;;;;8.73;4.22;;;1.80;99.90;;;1.44;100.00;100026.22;5264391;28;20051;-47
2023/12/01 09:09:03;;;;;;;7.82;4.05;;;1.80;99.90;;;1.44;100.00;100021.09;5260261;28;20055;-46
2023/12/01 09:11:35;;;;;;;7.97;3.60;;;1.90;99.90;;;1.52;100.00;100017.28;5263330;28;20121;-48
2023/12/01 09:14:08;;;;;;;10.07;4.05;;;1.90;99.90;;;1.59;100.00;100032.25;5259772;28;20435;-47
2023/12/01 09:16:41;;;;;;;10.05;3.95;;;2.00;99.90;;;1.60;100.00;100026.31;5259619;28;20052;-48
2023/12/01 09:19:14;;;;;;;13.63;4.55;;;2.00;99.90;;;1.55;100.00;100041.44;5271505;28;20052;-47
2023/12/01 09:21:47;;;;;;;8.90;3.92;;;2.00;99.90;;;1.56;100.00;100043.22;5262554;28;20051;-47
2023/12/01 09:24:20;;;;;;;9.20;3.60;;;2.00;99.90;;;1.53;100.00;100057.56;5258975;28;20056;-47
2023/12/01 09:26:52;;;;;;;6.60;3.13;;;2.00;99.90;;;1.52;100.00;100056.69;5248175;28;20404;-47
2023/12/01 09:29:25;;;;;;;8.20;2.92;;;2.00;99.90;;;1.56;100.00;100060.31;5256536;28;20520;-46
2023/12/01 09:31:59;;;;;;;7.88;3.15;;;2.00;99.90;;;1.57;100.00;100049.25;5262476;28;20506;-46
2023/12/01 09:34:31;;;;;;;7.18;3.00;;;2.00;99.90;;;1.60;100.00;100052.88;5263284;28;20126;-47
2023/12/01 09:37:03;;;;;;;6.45;2.78;;;2.00;99.90;;;1.65;100.00;100053.16;5262323;28;20055;-47
2023/12/01 09:39:36;;;;;;;5.13;2.95;;;2.00;99.90;;;1.66;100.00;100048.91;5256516;28;20418;-47
2023/12/01 09:42:09;;;;;;;6.40;3.20;;;2.10;99.90;;;1.68;100.00;100045.59;5254698;28;20052;-47
2023/12/01 09:44:41;;;;;;;6.40;2.60;;;2.10;99.90;;;1.67;100.00;100051.53;5262949;28;20052;-48
2023/12/01 09:47:17;;;;;;;7.50;2.88;;;2.10;99.90;;;1.65;100.00;100045.44;5272016;28;20047;-47
2023/12/01 09:49:50;;;;;;;6.53;2.85;;;2.10;99.90;;;1.66;100.00;100049.78;5261447;28;20604;-48
2023/12/01 09:52:22;;;;;;;5.03;2.47;;;2.10;99.90;;;1.66;100.00;100054.91;5255406;28;20124;-47
2023/12/01 09:54:55;;;;;;;5.13;2.63;;;2.00;99.90;;;1.66;100.00;100064.31;5248490;28;20053;-47
2023/12/01 09:57:29;;;;;;;6.72;2.97;;;2.10;99.90;;;1.57;100.00;100074.94;5257156;28;20044;-47
2023/12/01 10:00:03;;;;;;;6.43;2.90;;;2.00;99.90;;;1.53;100.00;100073.88;5262049;28;20052;-47
2023/12/01 10:02:45;;;;;;;6.20;3.00;;;2.00;99.90;;;1.51;100.00;100070.34;5263643;28;20507;-48
2023/12/01 10:05:19;;;;;;;8.07;3.42;;;2.00;99.90;;;1.55;100.00;100061.09;5252004;28;20044;-49
2023/12/01 10:07:51;;;;;;;7.05;3.47;;;2.00;99.90;;;1.56;100.00;100068.91;5279534;28;20546;-48
2023/12/01 10:10:26;;;;;;;7.80;2.72;;;2.00;99.90;;;1.59;100.00;100065.63;5264691;28;20051;-47
2023/12/01 10:13:04;;;;;;;8.70;3.70;;;2.00;99.90;;;1.55;100.00;100071.38;5260897;28;20048;-47
2023/12/01 10:15:38;;;;;;;8.00;3.17;;;2.00;99.90;;;1.75;100.00;100070.84;5258009;28;20044;-48
2023/12/01 10:18:16;;;;;;;7.13;3.30;;;2.10;99.90;;;1.81;100.00;100062.63;5260796;28;20044;-48
2023/12/01 10:20:59;;;;;;;7.95;3.00;;;2.20;99.90;;;1.76;100.00;100058.91;5257072;28;21005;-47
2023/12/01 10:23:33;;;;;;;8.18;2.92;;;2.20;99.90;;;1.73;100.00;100058.72;5259707;28;20069;-46
2023/12/01 10:26:07;;;;;;;7.10;2.92;;;2.20;99.90;;;1.65;100.00;100060.84;5258677;28;20571;-47
2023/12/01 10:28:42;;;;;;;6.28;2.42;;;2.20;99.90;;;1.61;100.00;100064.03;5261774;28;20105;-48
2023/12/01 10:31:16;;;;;;;;;;;2.10;99.90;;;1.75;100.00;100065.72;5250457;28;20139;-52
2023/12/01 10:33:50;;;;;;;5.63;2.50;;;2.20;99.90;;;1.91;100.00;100064.94;5252602;28;19920;-48
2023/12/01 10:36:23;;;;;;;8.80;3.10;;;2.30;99.90;;;2.02;100.00;100060.38;5255991;28;20530;-55
2023/12/01 10:38:57;;;;;;;6.72;2.92;;;2.40;99.90;;;2.12;100.00;100067.84;5262545;28;20452;-47
2023/12/01 10:41:29;;;;;;;8.25;3.53;;;2.50;99.90;;;2.07;100.00;100076.97;5247138;28;20143;-47